sensor_id;sensor_type;location;lat;lon;timestamp;temperature;humidity
5172;DHT22;2605;49.770;9.868;2023-08-17T00:00:03;17.70;99.90
5172;DHT22;2605;49.770;9.868;2023-08-17T00:02:29;17.70;99.90
5172;DHT22;2605;49.770;9.868;2023-08-17T00:04:55;17.60;99.90
5172;DHT22;2605;49.770;9.868;2023-08-17T00:07:20;17.60;99.90
5172;DHT22;2605;49.770;9.868;2023-08-17T00:09:46;17.60;99.90
5172;DHT22;2605;49.770;9.868;2023-08-17T00:12:11;17.60;99.90
5172;DHT22;2605;49.770;9.868;2023-08-17T00:14:37;17.60;99.90
5172;DHT22;2605;49.770;9.868;2023-08-17T00:17:02;17.60;99.90
5172;DHT22;2605;49.770;9.868;2023-08-17T00:19:28;17.60;99.90
5172;DHT22;2605;49.770;9.868;2023-08-17T00:21:54;17.60;99.90
5172;DHT22;2605;49.770;9.868;2023-08-17T00:24:20;17.60;99.90
5172;DHT22;2605;49.770;9.868;2023-08-17T00:26:46;17.60;99.90
5172;DHT22;2605;49.770;9.868;2023-08-17T00:29:11;17.60;99.90
5172;DHT22;2605;49.770;9.868;2023-08-17T00:31:36;17.60;99.90
5172;DHT22;2605;49.770;9.868;2023-08-17T00:34:02;17.60;99.90
5172;DHT22;2605;49.770;9.868;2023-08-17T00:36:28;17.60;99.90
5172;DHT22;2605;49.770;9.868;2023-08-17T00:38:53;17.60;99.90
5172;DHT22;2605;49.770;9.868;2023-08-17T00:41:19;17.60;99.90
5172;DHT22;2605;49.770;9.868;2023-08-17T00:43:47;17.60;99.90
5172;DHT22;2605;49.770;9.868;2023-08-17T00:46:12;17.60;99.90
5172;DHT22;2605;49.770;9.868;2023-08-17T00:48:39;17.50;99.90
5172;DHT22;2605;49.770;9.868;2023-08-17T00:51:08;17.50;99.90
5172;DHT22;2605;49.770;9.868;2023-08-17T00:53:34;17.60;99.90
5172;DHT22;2605;49.770;9.868;2023-08-17T00:56:01;17.60;99.90
5172;DHT22;2605;49.770;9.868;2023-08-17T00:58:27;17.60;99.90
5172;DHT22;2605;49.770;9.868;2023-08-17T01:00:54;17.60;99.90
5172;DHT22;2605;49.770;9.868;2023-08-17T01:03:20;17.60;99.90
5172;DHT22;2605;49.770;9.868;2023-08-17T01:05:47;17.60;99.90
5172;DHT22;2605;49.770;9.868;2023-08-17T01:08:12;17.70;99.90
5172;DHT22;2605;49.770;9.868;2023-08-17T01:13:43;17.70;99.90
5172;DHT22;2605;49.770;9.868;2023-08-17T01:16:14;17.70;99.90
5172;DHT22;2605;49.770;9.868;2023-08-17T01:18:40;17.80;99.90
5172;DHT22;2605;49.770;9.868;2023-08-17T01:21:09;17.70;99.90
5172;DHT22;2605;49.770;9.868;2023-08-17T01:23:35;17.80;99.90
5172;DHT22;2605;49.770;9.868;2023-08-17T01:26:01;17.70;99.90
5172;DHT22;2605;49.770;9.868;2023-08-17T01:28:27;17.70;99.90
5172;DHT22;2605;49.770;9.868;2023-08-17T01:31:00;17.60;99.90
5172;DHT22;2605;49.770;9.868;2023-08-17T01:33:33;17.60;99.90
5172;DHT22;2605;49.770;9.868;2023-08-17T01:36:20;17.60;99.90
5172;DHT22;2605;49.770;9.868;2023-08-17T01:38:50;17.60;99.90
5172;DHT22;2605;49.770;9.868;2023-08-17T01:41:17;17.50;99.90
5172;DHT22;2605;49.770;9.868;2023-08-17T01:43:46;17.50;99.90
5172;DHT22;2605;49.770;9.868;2023-08-17T01:46:16;17.50;99.90
5172;DHT22;2605;49.770;9.868;2023-08-17T01:48:45;17.50;99.90
5172;DHT22;2605;49.770;9.868;2023-08-17T01:51:17;17.40;99.90
5172;DHT22;2605;49.770;9.868;2023-08-17T01:53:47;17.40;99.90
5172;DHT22;2605;49.770;9.868;2023-08-17T01:56:12;17.40;99.90
5172;DHT22;2605;49.770;9.868;2023-08-17T01:58:38;17.30;99.90
5172;DHT22;2605;49.770;9.868;2023-08-17T02:01:03;17.30;99.90
5172;DHT22;2605;49.770;9.868;2023-08-17T02:03:29;17.30;99.90
5172;DHT22;2605;49.770;9.868;2023-08-17T02:05:58;17.30;99.90
5172;DHT22;2605;49.770;9.868;2023-08-17T02:08:24;17.20;99.90
5172;DHT22;2605;49.770;9.868;2023-08-17T02:10:50;17.20;99.90
5172;DHT22;2605;49.770;9.868;2023-08-17T02:13:16;17.20;99.90
5172;DHT22;2605;49.770;9.868;2023-08-17T02:15:42;17.20;99.90
5172;DHT22;2605;49.770;9.868;2023-08-17T02:18:07;17.30;99.90
5172;DHT22;2605;49.770;9.868;2023-08-17T02:20:33;17.20;99.90
5172;DHT22;2605;49.770;9.868;2023-08-17T02:23:00;17.20;99.90
5172;DHT22;2605;49.770;9.868;2023-08-17T02:25:26;17.20;99.90
5172;DHT22;2605;49.770;9.868;2023-08-17T02:27:52;17.20;99.90
5172;DHT22;2605;49.770;9.868;2023-08-17T02:30:18;17.10;99.90
5172;DHT22;2605;49.770;9.868;2023-08-17T02:32:44;17.10;99.90
5172;DHT22;2605;49.770;9.868;2023-08-17T02:35:09;17.10;99.90
5172;DHT22;2605;49.770;9.868;2023-08-17T02:37:35;17.10;99.90
5172;DHT22;2605;49.770;9.868;2023-08-17T02:40:00;17.10;99.90
5172;DHT22;2605;49.770;9.868;2023-08-17T02:42:26;17.10;99.90
5172;DHT22;2605;49.770;9.868;2023-08-17T02:44:51;17.10;99.90
5172;DHT22;2605;49.770;9.868;2023-08-17T02:47:17;17.10;99.90
5172;DHT22;2605;49.770;9.868;2023-08-17T02:49:42;17.00;99.90
5172;DHT22;2605;49.770;9.868;2023-08-17T02:52:08;17.00;99.90
5172;DHT22;2605;49.770;9.868;2023-08-17T02:54:33;17.00;99.90
5172;DHT22;2605;49.770;9.868;2023-08-17T02:56:59;17.00;99.90
5172;DHT22;2605;49.770;9.868;2023-08-17T02:59:25;16.90;99.90
5172;DHT22;2605;49.770;9.868;2023-08-17T03:01:51;16.90;99.90
5172;DHT22;2605;49.770;9.868;2023-08-17T03:04:16;16.90;99.90
5172;DHT22;2605;49.770;9.868;2023-08-17T03:06:42;16.90;99.90
5172;DHT22;2605;49.770;9.868;2023-08-17T03:09:07;16.90;99.90
5172;DHT22;2605;49.770;9.868;2023-08-17T03:11:33;16.90;99.90
5172;DHT22;2605;49.770;9.868;2023-08-17T03:13:58;16.90;99.90
5172;DHT22;2605;49.770;9.868;2023-08-17T03:16:27;17.00;99.90
5172;DHT22;2605;49.770;9.868;2023-08-17T03:18:53;17.00;99.90
5172;DHT22;2605;49.770;9.868;2023-08-17T03:21:18;17.00;99.90
5172;DHT22;2605;49.770;9.868;2023-08-17T03:23:45;17.00;99.90
5172;DHT22;2605;49.770;9.868;2023-08-17T03:26:10;17.00;99.90
5172;DHT22;2605;49.770;9.868;2023-08-17T03:28:36;17.10;99.90
5172;DHT22;2605;49.770;9.868;2023-08-17T03:31:02;17.00;99.90
5172;DHT22;2605;49.770;9.868;2023-08-17T03:33:28;17.00;99.90
5172;DHT22;2605;49.770;9.868;2023-08-17T03:35:54;17.10;99.90
5172;DHT22;2605;49.770;9.868;2023-08-17T03:38:19;17.10;99.90
5172;DHT22;2605;49.770;9.868;2023-08-17T03:40:45;17.00;99.90
5172;DHT22;2605;49.770;9.868;2023-08-17T03:43:11;17.10;99.90
5172;DHT22;2605;49.770;9.868;2023-08-17T03:45:36;17.10;99.90
5172;DHT22;2605;49.770;9.868;2023-08-17T03:48:02;17.10;99.90
5172;DHT22;2605;49.770;9.868;2023-08-17T03:50:28;17.10;99.90
5172;DHT22;2605;49.770;9.868;2023-08-17T03:52:53;17.10;99.90
5172;DHT22;2605;49.770;9.868;2023-08-17T03:55:19;17.10;99.90
5172;DHT22;2605;49.770;9.868;2023-08-17T03:57:44;17.10;99.90
5172;DHT22;2605;49.770;9.868;2023-08-17T04:00:10;17.10;99.90
5172;DHT22;2605;49.770;9.868;2023-08-17T04:02:36;17.10;99.90
5172;DHT22;2605;49.770;9.868;2023-08-17T04:05:05;17.10;99.90
5172;DHT22;2605;49.770;9.868;2023-08-17T04:07:30;17.10;99.90
5172;DHT22;2605;49.770;9.868;2023-08-17T04:09:56;17.10;99.90
5172;DHT22;2605;49.770;9.868;2023-08-17T04:12:21;17.10;99.90
5172;DHT22;2605;49.770;9.868;2023-08-17T04:14:47;17.00;99.90
5172;DHT22;2605;49.770;9.868;2023-08-17T04:17:12;17.00;99.90
5172;DHT22;2605;49.770;9.868;2023-08-17T04:19:38;16.90;99.90
5172;DHT22;2605;49.770;9.868;2023-08-17T04:22:03;16.90;99.90
5172;DHT22;2605;49.770;9.868;2023-08-17T04:24:29;16.90;99.90
5172;DHT22;2605;49.770;9.868;2023-08-17T04:26:55;16.90;99.90
5172;DHT22;2605;49.770;9.868;2023-08-17T04:29:20;17.00;99.90
5172;DHT22;2605;49.770;9.868;2023-08-17T04:31:46;17.00;99.90
5172;DHT22;2605;49.770;9.868;2023-08-17T04:34:11;17.00;99.90
5172;DHT22;2605;49.770;9.868;2023-08-17T04:36:37;17.00;99.90
5172;DHT22;2605;49.770;9.868;2023-08-17T04:39:02;17.10;99.90
5172;DHT22;2605;49.770;9.868;2023-08-17T04:41:30;17.10;99.90
5172;DHT22;2605;49.770;9.868;2023-08-17T04:43:58;17.20;99.90
5172;DHT22;2605;49.770;9.868;2023-08-17T04:46:23;17.30;99.90
5172;DHT22;2605;49.770;9.868;2023-08-17T04:48:49;17.30;99.90
5172;DHT22;2605;49.770;9.868;2023-08-17T04:51:15;17.40;99.90
5172;DHT22;2605;49.770;9.868;2023-08-17T04:53:43;17.50;99.90
5172;DHT22;2605;49.770;9.868;2023-08-17T04:56:10;17.60;99.90
5172;DHT22;2605;49.770;9.868;2023-08-17T04:58:35;17.70;99.90
5172;DHT22;2605;49.770;9.868;2023-08-17T05:01:01;17.70;99.90
5172;DHT22;2605;49.770;9.868;2023-08-17T05:03:26;17.80;99.90
5172;DHT22;2605;49.770;9.868;2023-08-17T05:05:52;17.80;99.90
5172;DHT22;2605;49.770;9.868;2023-08-17T05:08:18;17.90;99.90
5172;DHT22;2605;49.770;9.868;2023-08-17T05:10:44;17.90;99.90
5172;DHT22;2605;49.770;9.868;2023-08-17T05:13:09;18.00;99.90
5172;DHT22;2605;49.770;9.868;2023-08-17T05:15:35;18.00;99.90
5172;DHT22;2605;49.770;9.868;2023-08-17T05:18:00;18.00;99.90
5172;DHT22;2605;49.770;9.868;2023-08-17T05:20:26;18.00;99.90
5172;DHT22;2605;49.770;9.868;2023-08-17T05:22:51;18.10;99.90
5172;DHT22;2605;49.770;9.868;2023-08-17T05:25:17;18.20;99.90
5172;DHT22;2605;49.770;9.868;2023-08-17T05:27:42;18.10;99.90
5172;DHT22;2605;49.770;9.868;2023-08-17T05:30:08;18.10;99.90
5172;DHT22;2605;49.770;9.868;2023-08-17T05:32:33;18.10;99.90
5172;DHT22;2605;49.770;9.868;2023-08-17T05:34:59;18.10;99.90
5172;DHT22;2605;49.770;9.868;2023-08-17T05:37:24;18.20;99.90
5172;DHT22;2605;49.770;9.868;2023-08-17T05:39:50;18.20;99.90
5172;DHT22;2605;49.770;9.868;2023-08-17T05:42:18;18.30;99.90
5172;DHT22;2605;49.770;9.868;2023-08-17T05:44:45;18.30;99.90
5172;DHT22;2605;49.770;9.868;2023-08-17T05:47:10;18.40;99.90
5172;DHT22;2605;49.770;9.868;2023-08-17T05:49:35;18.40;99.90
5172;DHT22;2605;49.770;9.868;2023-08-17T05:52:03;18.50;99.90
5172;DHT22;2605;49.770;9.868;2023-08-17T05:54:29;18.50;99.90
5172;DHT22;2605;49.770;9.868;2023-08-17T05:56:54;18.50;99.90
5172;DHT22;2605;49.770;9.868;2023-08-17T05:59:20;18.60;99.90
5172;DHT22;2605;49.770;9.868;2023-08-17T06:01:45;18.60;99.90
5172;DHT22;2605;49.770;9.868;2023-08-17T06:04:11;18.70;99.90
5172;DHT22;2605;49.770;9.868;2023-08-17T06:06:36;18.70;99.90
5172;DHT22;2605;49.770;9.868;2023-08-17T06:09:02;18.70;99.90
5172;DHT22;2605;49.770;9.868;2023-08-17T06:11:27;18.70;99.90
5172;DHT22;2605;49.770;9.868;2023-08-17T06:13:53;18.70;99.90
5172;DHT22;2605;49.770;9.868;2023-08-17T06:16:18;18.80;99.90
5172;DHT22;2605;49.770;9.868;2023-08-17T06:18:47;18.80;99.90
5172;DHT22;2605;49.770;9.868;2023-08-17T06:21:12;18.80;99.90
5172;DHT22;2605;49.770;9.868;2023-08-17T06:23:38;19.00;99.90
5172;DHT22;2605;49.770;9.868;2023-08-17T06:26:03;19.10;99.90
5172;DHT22;2605;49.770;9.868;2023-08-17T06:28:29;19.20;99.90
5172;DHT22;2605;49.770;9.868;2023-08-17T06:30:55;19.30;99.90
5172;DHT22;2605;49.770;9.868;2023-08-17T06:33:21;19.20;99.90
5172;DHT22;2605;49.770;9.868;2023-08-17T06:35:47;19.20;99.90
5172;DHT22;2605;49.770;9.868;2023-08-17T06:38:12;19.40;99.90
5172;DHT22;2605;49.770;9.868;2023-08-17T06:40:38;19.60;99.90
5172;DHT22;2605;49.770;9.868;2023-08-17T06:43:04;19.60;99.90
5172;DHT22;2605;49.770;9.868;2023-08-17T06:45:31;19.60;99.90
5172;DHT22;2605;49.770;9.868;2023-08-17T06:47:57;19.60;99.90
5172;DHT22;2605;49.770;9.868;2023-08-17T06:50:22;19.60;99.90
5172;DHT22;2605;49.770;9.868;2023-08-17T06:52:48;19.80;99.90
5172;DHT22;2605;49.770;9.868;2023-08-17T06:55:13;19.90;99.90
5172;DHT22;2605;49.770;9.868;2023-08-17T06:57:41;19.90;99.90
5172;DHT22;2605;49.770;9.868;2023-08-17T07:00:07;20.00;99.90
5172;DHT22;2605;49.770;9.868;2023-08-17T07:02:33;20.00;99.90
5172;DHT22;2605;49.770;9.868;2023-08-17T07:04:59;20.10;99.90
5172;DHT22;2605;49.770;9.868;2023-08-17T07:07:25;20.20;99.90
5172;DHT22;2605;49.770;9.868;2023-08-17T07:09:51;20.20;99.90
5172;DHT22;2605;49.770;9.868;2023-08-17T07:12:19;20.30;99.90
5172;DHT22;2605;49.770;9.868;2023-08-17T07:14:45;20.50;99.90
5172;DHT22;2605;49.770;9.868;2023-08-17T07:17:10;20.70;99.90
5172;DHT22;2605;49.770;9.868;2023-08-17T07:19:36;20.80;99.90
5172;DHT22;2605;49.770;9.868;2023-08-17T07:22:01;21.10;99.90
5172;DHT22;2605;49.770;9.868;2023-08-17T07:24:27;21.30;99.90
5172;DHT22;2605;49.770;9.868;2023-08-17T07:26:53;21.50;99.90
5172;DHT22;2605;49.770;9.868;2023-08-17T07:29:18;21.80;99.90
5172;DHT22;2605;49.770;9.868;2023-08-17T07:31:44;21.90;99.90
5172;DHT22;2605;49.770;9.868;2023-08-17T07:34:10;21.90;99.90
5172;DHT22;2605;49.770;9.868;2023-08-17T07:36:38;21.90;99.90
5172;DHT22;2605;49.770;9.868;2023-08-17T07:39:04;21.90;99.90
5172;DHT22;2605;49.770;9.868;2023-08-17T07:41:29;21.80;99.90
5172;DHT22;2605;49.770;9.868;2023-08-17T07:43:55;21.80;99.90
5172;DHT22;2605;49.770;9.868;2023-08-17T07:46:21;21.80;99.90
5172;DHT22;2605;49.770;9.868;2023-08-17T07:48:46;21.90;99.90
5172;DHT22;2605;49.770;9.868;2023-08-17T07:51:12;21.80;99.90
5172;DHT22;2605;49.770;9.868;2023-08-17T07:53:38;21.80;99.90
5172;DHT22;2605;49.770;9.868;2023-08-17T07:56:03;21.70;99.90
5172;DHT22;2605;49.770;9.868;2023-08-17T07:58:29;21.80;99.90
5172;DHT22;2605;49.770;9.868;2023-08-17T08:00:54;21.90;99.90
5172;DHT22;2605;49.770;9.868;2023-08-17T08:03:20;22.00;99.90
5172;DHT22;2605;49.770;9.868;2023-08-17T08:05:45;22.10;99.90
5172;DHT22;2605;49.770;9.868;2023-08-17T08:08:11;22.10;99.90
5172;DHT22;2605;49.770;9.868;2023-08-17T08:10:36;22.10;99.90
5172;DHT22;2605;49.770;9.868;2023-08-17T08:13:02;22.20;99.90
5172;DHT22;2605;49.770;9.868;2023-08-17T08:15:28;22.20;99.90
5172;DHT22;2605;49.770;9.868;2023-08-17T08:17:53;22.30;99.90
5172;DHT22;2605;49.770;9.868;2023-08-17T08:20:22;22.30;99.90
5172;DHT22;2605;49.770;9.868;2023-08-17T08:22:47;22.20;99.90
5172;DHT22;2605;49.770;9.868;2023-08-17T08:25:13;22.30;99.90
5172;DHT22;2605;49.770;9.868;2023-08-17T08:27:38;22.40;99.90
5172;DHT22;2605;49.770;9.868;2023-08-17T08:30:05;22.60;99.90
5172;DHT22;2605;49.770;9.868;2023-08-17T08:32:30;22.70;99.90
5172;DHT22;2605;49.770;9.868;2023-08-17T08:34:56;22.80;99.90
5172;DHT22;2605;49.770;9.868;2023-08-17T08:37:21;23.00;99.90
5172;DHT22;2605;49.770;9.868;2023-08-17T08:39:58;23.10;99.90
5172;DHT22;2605;49.770;9.868;2023-08-17T08:42:27;23.20;99.90
5172;DHT22;2605;49.770;9.868;2023-08-17T08:44:53;23.50;99.90
5172;DHT22;2605;49.770;9.868;2023-08-17T08:47:18;23.70;99.90
5172;DHT22;2605;49.770;9.868;2023-08-17T08:49:59;23.60;99.90
5172;DHT22;2605;49.770;9.868;2023-08-17T08:52:53;23.70;99.90
5172;DHT22;2605;49.770;9.868;2023-08-17T08:55:23;24.00;99.90
5172;DHT22;2605;49.770;9.868;2023-08-17T08:57:50;24.20;99.90
5172;DHT22;2605;49.770;9.868;2023-08-17T09:00:18;24.50;99.90
5172;DHT22;2605;49.770;9.868;2023-08-17T09:02:44;24.80;99.90
5172;DHT22;2605;49.770;9.868;2023-08-17T09:05:10;25.00;99.90
5172;DHT22;2605;49.770;9.868;2023-08-17T09:07:37;25.20;99.90
5172;DHT22;2605;49.770;9.868;2023-08-17T09:10:04;25.30;99.90
5172;DHT22;2605;49.770;9.868;2023-08-17T09:12:30;25.50;99.90
5172;DHT22;2605;49.770;9.868;2023-08-17T09:14:58;25.60;99.90
5172;DHT22;2605;49.770;9.868;2023-08-17T09:17:27;25.60;99.90
5172;DHT22;2605;49.770;9.868;2023-08-17T09:19:54;25.60;99.90
5172;DHT22;2605;49.770;9.868;2023-08-17T09:25:01;26.10;99.90
5172;DHT22;2605;49.770;9.868;2023-08-17T09:27:27;26.10;99.90
5172;DHT22;2605;49.770;9.868;2023-08-17T09:29:53;26.20;99.90
5172;DHT22;2605;49.770;9.868;2023-08-17T09:32:30;26.30;99.90
5172;DHT22;2605;49.770;9.868;2023-08-17T09:34:55;26.40;99.90
5172;DHT22;2605;49.770;9.868;2023-08-17T09:37:21;26.50;99.90
5172;DHT22;2605;49.770;9.868;2023-08-17T09:39:46;26.60;99.90
5172;DHT22;2605;49.770;9.868;2023-08-17T09:42:12;26.30;99.90
5172;DHT22;2605;49.770;9.868;2023-08-17T09:44:37;26.10;99.90
5172;DHT22;2605;49.770;9.868;2023-08-17T09:47:05;26.10;99.90
5172;DHT22;2605;49.770;9.868;2023-08-17T09:49:32;26.10;99.90
5172;DHT22;2605;49.770;9.868;2023-08-17T09:52:01;26.00;99.90
5172;DHT22;2605;49.770;9.868;2023-08-17T09:54:30;26.20;99.90
5172;DHT22;2605;49.770;9.868;2023-08-17T09:56:57;26.30;99.90
5172;DHT22;2605;49.770;9.868;2023-08-17T09:59:23;26.30;99.90
5172;DHT22;2605;49.770;9.868;2023-08-17T10:01:50;26.50;99.90
5172;DHT22;2605;49.770;9.868;2023-08-17T10:04:26;26.80;99.90
5172;DHT22;2605;49.770;9.868;2023-08-17T10:06:59;26.70;99.90
5172;DHT22;2605;49.770;9.868;2023-08-17T10:09:29;26.70;99.90
5172;DHT22;2605;49.770;9.868;2023-08-17T10:11:57;26.60;99.90
5172;DHT22;2605;49.770;9.868;2023-08-17T10:14:35;26.50;99.90
5172;DHT22;2605;49.770;9.868;2023-08-17T10:17:07;26.30;99.90
5172;DHT22;2605;49.770;9.868;2023-08-17T10:19:43;26.40;99.90
5172;DHT22;2605;49.770;9.868;2023-08-17T10:22:17;26.40;99.90
5172;DHT22;2605;49.770;9.868;2023-08-17T10:24:44;26.40;99.90
5172;DHT22;2605;49.770;9.868;2023-08-17T10:27:14;26.50;99.90
5172;DHT22;2605;49.770;9.868;2023-08-17T10:29:41;26.80;99.90
5172;DHT22;2605;49.770;9.868;2023-08-17T10:32:07;27.00;99.90
5172;DHT22;2605;49.770;9.868;2023-08-17T10:34:34;27.10;99.90
5172;DHT22;2605;49.770;9.868;2023-08-17T10:37:00;27.40;99.90
5172;DHT22;2605;49.770;9.868;2023-08-17T10:39:27;27.60;99.90
5172;DHT22;2605;49.770;9.868;2023-08-17T10:41:53;27.90;99.90
5172;DHT22;2605;49.770;9.868;2023-08-17T10:44:39;28.20;99.90
5172;DHT22;2605;49.770;9.868;2023-08-17T10:47:30;28.30;99.90
5172;DHT22;2605;49.770;9.868;2023-08-17T10:50:21;28.60;99.90
5172;DHT22;2605;49.770;9.868;2023-08-17T10:52:49;28.80;99.90
5172;DHT22;2605;49.770;9.868;2023-08-17T10:55:15;28.80;99.90
5172;DHT22;2605;49.770;9.868;2023-08-17T10:57:41;28.60;99.90
5172;DHT22;2605;49.770;9.868;2023-08-17T11:00:13;28.40;99.90
5172;DHT22;2605;49.770;9.868;2023-08-17T11:02:39;27.90;99.90
5172;DHT22;2605;49.770;9.868;2023-08-17T11:05:06;27.70;99.90
5172;DHT22;2605;49.770;9.868;2023-08-17T11:07:43;27.70;99.90
5172;DHT22;2605;49.770;9.868;2023-08-17T11:12:46;27.70;99.90
5172;DHT22;2605;49.770;9.868;2023-08-17T11:15:14;28.10;99.90
5172;DHT22;2605;49.770;9.868;2023-08-17T11:17:40;28.30;99.90
5172;DHT22;2605;49.770;9.868;2023-08-17T11:20:06;28.40;99.90
5172;DHT22;2605;49.770;9.868;2023-08-17T11:22:33;28.60;99.90
5172;DHT22;2605;49.770;9.868;2023-08-17T11:24:58;28.50;99.90
5172;DHT22;2605;49.770;9.868;2023-08-17T11:27:24;28.50;99.90
5172;DHT22;2605;49.770;9.868;2023-08-17T11:29:50;28.20;99.90
5172;DHT22;2605;49.770;9.868;2023-08-17T11:32:17;28.20;99.90
5172;DHT22;2605;49.770;9.868;2023-08-17T11:34:43;28.10;99.90
5172;DHT22;2605;49.770;9.868;2023-08-17T11:37:11;28.00;99.90
5172;DHT22;2605;49.770;9.868;2023-08-17T11:39:37;28.10;99.90
5172;DHT22;2605;49.770;9.868;2023-08-17T11:42:03;28.10;99.90
5172;DHT22;2605;49.770;9.868;2023-08-17T11:44:32;27.90;99.90
5172;DHT22;2605;49.770;9.868;2023-08-17T11:46:58;27.90;99.90
5172;DHT22;2605;49.770;9.868;2023-08-17T11:49:23;28.00;99.90
5172;DHT22;2605;49.770;9.868;2023-08-17T11:51:52;27.90;99.90
5172;DHT22;2605;49.770;9.868;2023-08-17T11:54:18;28.10;99.90
5172;DHT22;2605;49.770;9.868;2023-08-17T11:56:43;28.20;99.90
5172;DHT22;2605;49.770;9.868;2023-08-17T11:59:10;28.50;99.90
5172;DHT22;2605;49.770;9.868;2023-08-17T12:01:44;28.50;99.90
5172;DHT22;2605;49.770;9.868;2023-08-17T12:04:10;28.40;99.90
5172;DHT22;2605;49.770;9.868;2023-08-17T12:06:43;28.40;99.90
5172;DHT22;2605;49.770;9.868;2023-08-17T12:09:09;28.40;99.90
5172;DHT22;2605;49.770;9.868;2023-08-17T12:11:35;28.40;99.90
5172;DHT22;2605;49.770;9.868;2023-08-17T12:14:11;28.60;99.90
5172;DHT22;2605;49.770;9.868;2023-08-17T12:16:49;28.60;99.90
5172;DHT22;2605;49.770;9.868;2023-08-17T12:19:15;28.50;99.90
5172;DHT22;2605;49.770;9.868;2023-08-17T12:21:41;28.80;99.90
5172;DHT22;2605;49.770;9.868;2023-08-17T12:24:09;29.00;99.90
5172;DHT22;2605;49.770;9.868;2023-08-17T12:26:35;29.20;99.90
5172;DHT22;2605;49.770;9.868;2023-08-17T12:29:04;29.30;99.90
5172;DHT22;2605;49.770;9.868;2023-08-17T12:31:30;29.30;99.90
5172;DHT22;2605;49.770;9.868;2023-08-17T12:33:56;29.30;99.90
5172;DHT22;2605;49.770;9.868;2023-08-17T12:36:22;29.30;99.90
5172;DHT22;2605;49.770;9.868;2023-08-17T12:38:47;29.30;99.90
5172;DHT22;2605;49.770;9.868;2023-08-17T12:41:13;29.50;99.90
5172;DHT22;2605;49.770;9.868;2023-08-17T12:43:39;29.30;99.90
5172;DHT22;2605;49.770;9.868;2023-08-17T12:46:04;29.30;99.90
5172;DHT22;2605;49.770;9.868;2023-08-17T12:48:30;29.20;99.90
5172;DHT22;2605;49.770;9.868;2023-08-17T12:50:56;29.20;99.90
5172;DHT22;2605;49.770;9.868;2023-08-17T12:53:21;29.50;99.90
5172;DHT22;2605;49.770;9.868;2023-08-17T12:55:47;29.70;99.90
5172;DHT22;2605;49.770;9.868;2023-08-17T12:58:13;30.10;99.90
5172;DHT22;2605;49.770;9.868;2023-08-17T13:00:38;30.40;99.90
5172;DHT22;2605;49.770;9.868;2023-08-17T13:03:04;30.30;99.90
5172;DHT22;2605;49.770;9.868;2023-08-17T13:05:29;30.60;99.90
5172;DHT22;2605;49.770;9.868;2023-08-17T13:07:55;30.60;99.90
5172;DHT22;2605;49.770;9.868;2023-08-17T13:10:21;30.80;99.90
5172;DHT22;2605;49.770;9.868;2023-08-17T13:12:46;30.70;99.90
5172;DHT22;2605;49.770;9.868;2023-08-17T13:15:13;31.10;99.90
5172;DHT22;2605;49.770;9.868;2023-08-17T13:17:38;30.90;99.90
5172;DHT22;2605;49.770;9.868;2023-08-17T13:20:04;30.90;99.90
5172;DHT22;2605;49.770;9.868;2023-08-17T13:22:32;30.80;99.90
5172;DHT22;2605;49.770;9.868;2023-08-17T13:24:57;30.60;99.90
5172;DHT22;2605;49.770;9.868;2023-08-17T13:27:23;30.50;99.90
5172;DHT22;2605;49.770;9.868;2023-08-17T13:29:48;30.30;99.90
5172;DHT22;2605;49.770;9.868;2023-08-17T13:32:14;30.30;99.90
5172;DHT22;2605;49.770;9.868;2023-08-17T13:34:40;30.40;99.90
5172;DHT22;2605;49.770;9.868;2023-08-17T13:37:05;30.50;99.90
5172;DHT22;2605;49.770;9.868;2023-08-17T13:39:31;30.80;99.90
5172;DHT22;2605;49.770;9.868;2023-08-17T13:41:57;30.80;99.90
5172;DHT22;2605;49.770;9.868;2023-08-17T13:44:22;30.60;99.90
5172;DHT22;2605;49.770;9.868;2023-08-17T13:46:48;30.30;99.90
5172;DHT22;2605;49.770;9.868;2023-08-17T13:49:14;30.10;99.90
5172;DHT22;2605;49.770;9.868;2023-08-17T13:51:39;30.30;99.90
5172;DHT22;2605;49.770;9.868;2023-08-17T13:54:05;30.30;99.90
5172;DHT22;2605;49.770;9.868;2023-08-17T13:56:30;30.40;99.90
5172;DHT22;2605;49.770;9.868;2023-08-17T13:59:02;30.20;99.90
5172;DHT22;2605;49.770;9.868;2023-08-17T14:01:28;30.10;99.90
5172;DHT22;2605;49.770;9.868;2023-08-17T14:03:53;30.30;99.90
5172;DHT22;2605;49.770;9.868;2023-08-17T14:06:19;31.80;99.90
5172;DHT22;2605;49.770;9.868;2023-08-17T14:08:44;33.30;99.90
5172;DHT22;2605;49.770;9.868;2023-08-17T14:11:10;34.20;99.90
5172;DHT22;2605;49.770;9.868;2023-08-17T14:13:35;33.70;99.90
5172;DHT22;2605;49.770;9.868;2023-08-17T14:16:05;32.80;99.90
5172;DHT22;2605;49.770;9.868;2023-08-17T14:18:30;32.00;99.90
5172;DHT22;2605;49.770;9.868;2023-08-17T14:20:56;31.60;99.90
5172;DHT22;2605;49.770;9.868;2023-08-17T14:23:21;31.20;99.90
5172;DHT22;2605;49.770;9.868;2023-08-17T14:25:47;30.80;99.90
5172;DHT22;2605;49.770;9.868;2023-08-17T14:28:12;30.30;99.90
5172;DHT22;2605;49.770;9.868;2023-08-17T14:30:38;30.00;99.90
5172;DHT22;2605;49.770;9.868;2023-08-17T14:33:03;29.70;99.90
5172;DHT22;2605;49.770;9.868;2023-08-17T14:35:29;29.50;99.90
5172;DHT22;2605;49.770;9.868;2023-08-17T14:37:55;29.10;99.90
5172;DHT22;2605;49.770;9.868;2023-08-17T14:40:23;28.80;99.90
5172;DHT22;2605;49.770;9.868;2023-08-17T14:42:48;28.60;99.90
5172;DHT22;2605;49.770;9.868;2023-08-17T14:45:14;28.50;99.90
5172;DHT22;2605;49.770;9.868;2023-08-17T14:47:39;28.40;99.90
5172;DHT22;2605;49.770;9.868;2023-08-17T14:50:05;28.30;99.90
5172;DHT22;2605;49.770;9.868;2023-08-17T14:52:31;28.30;99.90
5172;DHT22;2605;49.770;9.868;2023-08-17T14:54:57;28.10;99.90
5172;DHT22;2605;49.770;9.868;2023-08-17T14:57:22;27.90;99.90
5172;DHT22;2605;49.770;9.868;2023-08-17T14:59:48;27.80;99.90
5172;DHT22;2605;49.770;9.868;2023-08-17T15:02:13;27.80;99.90
5172;DHT22;2605;49.770;9.868;2023-08-17T15:04:39;27.70;99.90
5172;DHT22;2605;49.770;9.868;2023-08-17T15:07:05;27.70;99.90
5172;DHT22;2605;49.770;9.868;2023-08-17T15:09:36;27.60;99.90
5172;DHT22;2605;49.770;9.868;2023-08-17T15:12:02;27.60;99.90
5172;DHT22;2605;49.770;9.868;2023-08-17T15:14:27;27.60;99.90
5172;DHT22;2605;49.770;9.868;2023-08-17T15:16:53;27.60;99.90
5172;DHT22;2605;49.770;9.868;2023-08-17T15:19:18;27.60;99.90
5172;DHT22;2605;49.770;9.868;2023-08-17T15:21:44;27.40;99.90
5172;DHT22;2605;49.770;9.868;2023-08-17T15:24:09;27.30;99.90
5172;DHT22;2605;49.770;9.868;2023-08-17T15:26:35;27.30;99.90
5172;DHT22;2605;49.770;9.868;2023-08-17T15:29:01;27.40;99.90
5172;DHT22;2605;49.770;9.868;2023-08-17T15:31:26;27.40;99.90
5172;DHT22;2605;49.770;9.868;2023-08-17T15:33:55;27.60;99.90
5172;DHT22;2605;49.770;9.868;2023-08-17T15:36:20;27.80;99.90
5172;DHT22;2605;49.770;9.868;2023-08-17T15:38:50;28.10;99.90
5172;DHT22;2605;49.770;9.868;2023-08-17T15:41:15;28.40;99.90
5172;DHT22;2605;49.770;9.868;2023-08-17T15:43:41;28.50;99.90
5172;DHT22;2605;49.770;9.868;2023-08-17T15:46:06;28.60;99.90
5172;DHT22;2605;49.770;9.868;2023-08-17T15:48:33;28.80;99.90
5172;DHT22;2605;49.770;9.868;2023-08-17T15:50:58;28.80;99.90
5172;DHT22;2605;49.770;9.868;2023-08-17T15:53:24;28.90;99.90
5172;DHT22;2605;49.770;9.868;2023-08-17T15:55:49;28.80;99.90
5172;DHT22;2605;49.770;9.868;2023-08-17T15:58:15;29.00;99.90
5172;DHT22;2605;49.770;9.868;2023-08-17T16:00:40;29.00;99.90
5172;DHT22;2605;49.770;9.868;2023-08-17T16:03:07;29.10;99.90
5172;DHT22;2605;49.770;9.868;2023-08-17T16:05:33;29.20;99.90